Time;durP1;ratioP1;P1;durP2;ratioP2;P2;SDS_P1;SDS_P2;PMS_P1;PMS_P2;Temp;Humidity;BMP_temperature;BMP_pressure;BME280_temperature;BME280_humidity;BME280_pressure;Samples;Min_cycle;Max_cycle;Signal;HPM_P1;HPM_P2
2020/12/01 00:00:08;;;;;;;5.10;4.53;;;8.00;99.90;;;;;;5092239;28;20404;-73
2020/12/01 00:02:34;;;;;;;5.80;5.00;;;8.00;99.90;;;;;;5092490;28;20170;-73
2020/12/01 00:05:00;;;;;;;6.27;5.67;;;8.10;99.90;;;;;;5091671;28;20481;-73
2020/12/01 00:07:26;;;;;;;6.70;5.60;;;8.10;99.90;;;;;;5092396;28;20448;-73
2020/12/01 00:09:51;;;;;;;6.90;5.20;;;8.10;99.90;;;;;;5091468;28;20210;-74
2020/12/01 00:12:17;;;;;;;6.57;5.37;;;8.10;99.90;;;;;;5092271;28;20175;-74
2020/12/01 00:14:43;;;;;;;5.27;4.50;;;8.10;99.90;;;;;;5091520;28;20623;-74
2020/12/01 00:17:09;;;;;;;4.10;3.80;;;8.10;99.90;;;;;;5092505;28;20223;-73
2020/12/01 00:19:34;;;;;;;4.70;4.30;;;8.10;99.90;;;;;;5092164;28;20186;-73
2020/12/01 00:22:00;;;;;;;4.60;4.20;;;8.10;99.90;;;;;;5073243;28;20171;-74
2020/12/01 00:24:26;;;;;;;4.67;4.27;;;8.00;99.90;;;;;;5073408;28;20281;-74
2020/12/01 00:26:51;;;;;;;5.10;4.70;;;8.00;99.90;;;;;;5091418;28;20183;-74
2020/12/01 00:29:17;;;;;;;5.10;4.70;;;8.00;99.90;;;;;;5074210;28;20194;-74
2020/12/01 00:31:43;;;;;;;5.03;4.63;;;8.10;99.90;;;;;;5091252;28;20175;-74
2020/12/01 00:34:11;;;;;;;5.77;5.17;;;7.90;99.90;;;;;;5091735;28;20179;-74
2020/12/01 00:36:37;;;;;;;5.53;5.03;;;7.90;99.90;;;;;;5092261;28;20810;-74
2020/12/01 00:39:04;;;;;;;5.03;4.57;;;7.90;99.90;;;;;;5091191;28;20405;-74
2020/12/01 00:41:30;;;;;;;5.43;4.93;;;7.90;99.90;;;;;;5091908;28;20761;-74
2020/12/01 00:43:56;;;;;;;5.70;5.20;;;7.60;99.90;;;;;;5072970;28;20422;-74
2020/12/01 00:46:22;;;;;;;5.13;4.70;;;7.70;99.90;;;;;;5095892;28;20214;-73
2020/12/01 00:48:47;;;;;;;5.80;5.30;;;7.70;99.90;;;;;;5095232;28;20438;-74
2020/12/01 00:51:14;;;;;;;5.07;4.67;;;7.70;99.90;;;;;;5077753;28;20174;-73
2020/12/01 00:53:40;;;;;;;4.87;4.47;;;7.70;99.90;;;;;;5077315;28;20266;-75
2020/12/01 00:56:06;;;;;;;4.63;4.23;;;7.70;99.90;;;;;;5094811;28;20955;-74
2020/12/01 00:58:31;;;;;;;5.13;4.73;;;7.60;99.90;;;;;;5095139;28;20400;-74
2020/12/01 01:00:57;;;;;;;4.40;4.00;;;7.50;99.90;;;;;;5094749;28;20416;-74
2020/12/01 01:03:23;;;;;;;4.43;4.13;;;7.50;99.90;;;;;;5095255;28;20528;-74
2020/12/01 01:05:49;;;;;;;4.47;4.17;;;7.50;99.90;;;;;;5094371;28;20471;-74
2020/12/01 01:08:15;;;;;;;5.23;4.63;;;7.40;99.90;;;;;;5094642;28;20181;-74
2020/12/01 01:10:41;;;;;;;4.67;4.37;;;7.40;99.90;;;;;;5094882;28;20228;-75
2020/12/01 01:13:06;;;;;;;4.20;3.90;;;7.50;99.90;;;;;;5094898;28;20167;-74
2020/12/01 01:15:34;;;;;;;4.30;4.00;;;7.50;99.90;;;;;;5076921;28;20425;-74
2020/12/01 01:18:01;;;;;;;4.03;3.73;;;7.50;99.90;;;;;;5094204;28;20274;-74
2020/12/01 01:20:27;;;;;;;4.00;3.80;;;7.50;99.90;;;;;;5094772;28;20934;-74
2020/12/01 01:22:54;;;;;;;4.23;3.93;;;7.60;99.90;;;;;;5076681;28;21042;-74
2020/12/01 01:25:21;;;;;;;4.00;3.70;;;7.70;99.90;;;;;;5095089;28;20558;-74
2020/12/01 01:27:47;;;;;;;3.83;3.53;;;7.80;99.90;;;;;;5075791;28;20393;-75
2020/12/01 01:30:18;;;;;;;3.90;3.60;;;7.90;99.90;;;;;;5094846;28;20742;-74
2020/12/01 01:32:44;;;;;;;3.50;3.30;;;7.90;99.90;;;;;;5091381;28;20391;-75
2020/12/01 01:35:09;;;;;;;3.13;2.93;;;8.00;99.90;;;;;;5094914;28;20489;-74
2020/12/01 01:37:35;;;;;;;3.20;3.00;;;8.10;99.90;;;;;;5080519;28;20525;-75
2020/12/01 01:40:02;;;;;;;3.07;2.87;;;8.20;99.90;;;;;;5089380;28;20541;-74
2020/12/01 01:42:28;;;;;;;3.40;3.20;;;8.20;99.90;;;;;;5095149;28;20477;-74
2020/12/01 01:44:54;;;;;;;2.70;2.53;;;8.30;99.90;;;;;;5093946;28;20532;-75
2020/12/01 01:47:28;;;;;;;2.53;2.40;;;8.40;99.90;;;;;;5094766;28;20176;-74
2020/12/01 01:50:00;;;;;;;3.17;2.90;;;8.40;99.90;;;;;;5073030;28;20164;-74
2020/12/01 01:52:40;;;;;;;2.47;2.37;;;8.40;99.90;;;;;;5081293;28;20414;-74
2020/12/01 01:55:17;;;;;;;3.37;3.07;;;8.40;99.90;;;;;;5072385;28;20418;-74
2020/12/01 01:57:48;;;;;;;3.07;2.87;;;8.30;99.90;;;;;;5091393;28;20411;-74
2020/12/01 02:00:41;;;;;;;3.10;2.90;;;8.20;99.90;;;;;;5094508;28;20418;-74
2020/12/01 02:03:07;;;;;;;3.00;2.80;;;8.30;99.90;;;;;;5091893;28;20405;-73
2020/12/01 02:05:33;;;;;;;3.50;3.20;;;8.10;99.90;;;;;;5094204;28;20445;-74
2020/12/01 02:08:00;;;;;;;3.53;3.30;;;8.00;99.90;;;;;;5076235;28;20187;-74
2020/12/01 02:10:26;;;;;;;4.10;3.80;;;7.90;99.90;;;;;;5094380;28;20179;-74
2020/12/01 02:12:56;;;;;;;3.47;3.27;;;8.00;99.90;;;;;;5093032;28;20457;-74
2020/12/01 02:15:22;;;;;;;3.80;3.40;;;8.10;99.90;;;;;;5094250;28;20882;-74
2020/12/01 02:17:48;;;;;;;4.13;3.87;;;8.10;99.90;;;;;;5093299;28;20784;-73
2020/12/01 02:20:18;;;;;;;4.50;4.10;;;8.00;99.90;;;;;;5093780;28;20544;-73
2020/12/01 02:22:47;;;;;;;4.03;3.73;;;7.90;99.90;;;;;;5080281;28;21636;-74
2020/12/01 02:25:15;;;;;;;4.50;4.10;;;8.00;99.90;;;;;;5093515;28;20469;-74
2020/12/01 02:27:41;;;;;;;4.90;4.50;;;8.10;99.90;;;;;;5093596;28;20425;-74
2020/12/01 02:30:11;;;;;;;4.17;3.87;;;8.10;99.90;;;;;;5092600;28;20793;-74
2020/12/01 02:32:38;;;;;;;4.63;4.30;;;8.00;99.90;;;;;;5093672;28;20176;-74
2020/12/01 02:35:09;;;;;;;4.67;4.37;;;8.10;99.90;;;;;;5090490;28;20807;-74
2020/12/01 02:37:38;;;;;;;4.43;4.13;;;8.10;99.90;;;;;;5078065;28;20414;-75
2020/12/01 02:40:14;;;;;;;4.13;3.83;;;8.20;99.90;;;;;;5090318;28;21080;-74
2020/12/01 02:42:41;;;;;;;4.37;4.07;;;8.30;99.90;;;;;;5093189;28;20394;-73
2020/12/01 02:45:07;;;;;;;3.97;3.57;;;8.40;99.90;;;;;;5092879;28;20474;-73
2020/12/01 02:47:34;;;;;;;4.30;4.00;;;8.40;99.90;;;;;;5075791;28;20497;-74
2020/12/01 02:49:59;;;;;;;3.77;3.47;;;8.50;99.90;;;;;;5092942;28;20414;-73
2020/12/01 02:52:25;;;;;;;3.90;3.60;;;8.50;99.90;;;;;;5093930;28;20410;-73
2020/12/01 02:54:51;;;;;;;3.90;3.50;;;8.50;99.90;;;;;;5092946;28;20599;-73
2020/12/01 02:57:18;;;;;;;4.20;3.90;;;8.60;99.90;;;;;;5093023;28;20203;-73
2020/12/01 02:59:44;;;;;;;4.30;3.93;;;8.60;99.90;;;;;;5093067;28;20417;-75
2020/12/01 03:02:11;;;;;;;4.17;3.87;;;8.40;99.90;;;;;;5093227;28;20410;-73
2020/12/01 03:04:36;;;;;;;4.50;4.20;;;8.40;99.90;;;;;;5093123;28;20290;-73
2020/12/01 03:07:02;;;;;;;4.80;4.50;;;8.50;99.90;;;;;;5092528;28;20505;-73
2020/12/01 03:09:28;;;;;;;4.53;4.23;;;8.40;99.90;;;;;;5084379;28;20172;-73
2020/12/01 03:11:55;;;;;;;4.57;4.27;;;8.40;99.90;;;;;;5091529;28;20625;-73
2020/12/01 03:14:22;;;;;;;4.60;4.20;;;8.40;99.90;;;;;;5075131;28;20183;-73
2020/12/01 03:16:49;;;;;;;4.50;4.20;;;8.50;99.90;;;;;;5092432;28;20414;-73
2020/12/01 03:19:16;;;;;;;5.07;4.67;;;8.40;99.90;;;;;;5093406;28;20405;-73
2020/12/01 03:21:42;;;;;;;5.27;4.87;;;8.30;99.90;;;;;;5092609;28;20421;-73
2020/12/01 03:24:08;;;;;;;5.17;4.73;;;8.30;99.90;;;;;;5092064;28;20465;-73
2020/12/01 03:26:33;;;;;;;5.13;4.63;;;8.40;99.90;;;;;;5074569;28;20227;-73
2020/12/01 03:28:59;;;;;;;5.00;4.60;;;8.50;99.90;;;;;;5091879;28;20188;-73
2020/12/01 03:31:25;;;;;;;5.30;4.87;;;8.50;99.90;;;;;;5093078;28;20183;-73
2020/12/01 03:33:50;;;;;;;5.10;4.70;;;8.50;99.90;;;;;;5092157;28;20180;-74
2020/12/01 03:36:18;;;;;;;5.63;5.23;;;8.60;99.90;;;;;;5074739;28;20614;-76
2020/12/01 03:38:44;;;;;;;4.93;4.53;;;8.60;99.90;;;;;;5067379;28;20572;-77
2020/12/01 03:41:10;;;;;;;5.40;5.00;;;8.60;99.90;;;;;;5091104;28;20413;-75
2020/12/01 03:43:36;;;;;;;5.23;4.83;;;8.60;99.90;;;;;;5092436;28;20216;-76
2020/12/01 03:46:03;;;;;;;4.90;4.50;;;8.60;99.90;;;;;;5091413;28;20947;-76
2020/12/01 03:48:29;;;;;;;4.93;4.53;;;8.60;99.90;;;;;;5092191;28;20259;-75
2020/12/01 03:50:56;;;;;;;6.07;5.57;;;8.60;99.90;;;;;;5091742;28;20535;-75
2020/12/01 03:53:21;;;;;;;5.80;5.20;;;8.70;99.90;;;;;;5074644;28;20175;-73
2020/12/01 03:55:47;;;;;;;5.30;4.90;;;8.70;99.90;;;;;;5074013;28;20766;-75
2020/12/01 03:58:13;;;;;;;5.23;4.83;;;8.70;99.80;;;;;;5092030;28;20180;-74
2020/12/01 04:00:39;;;;;;;6.07;5.57;;;8.70;99.70;;;;;;5092853;28;20663;-74
2020/12/01 04:03:05;;;;;;;4.60;4.30;;;8.80;99.60;;;;;;5091641;28;20428;-74
2020/12/01 04:05:31;;;;;;;5.73;5.23;;;8.80;99.60;;;;;;5092186;28;20208;-74
2020/12/01 04:07:57;;;;;;;5.80;5.33;;;8.80;99.90;;;;;;5091638;28;20175;-69
2020/12/01 04:10:25;;;;;;;5.53;5.03;;;8.80;99.70;;;;;;5083980;28;20410;-69
2020/12/01 04:12:53;;;;;;;5.03;4.73;;;8.80;99.60;;;;;;5090558;28;20410;-69
2020/12/01 04:15:20;;;;;;;5.60;5.20;;;8.80;99.60;;;;;;5092347;28;20463;-68
2020/12/01 04:17:46;;;;;;;5.70;5.30;;;8.80;99.50;;;;;;5091730;28;20449;-70
2020/12/01 04:20:13;;;;;;;5.47;5.07;;;8.80;99.40;;;;;;5091560;28;20409;-68
2020/12/01 04:22:38;;;;;;;5.80;5.20;;;8.80;99.40;;;;;;5092285;28;20409;-68
2020/12/01 04:25:08;;;;;;;5.50;5.10;;;8.80;99.30;;;;;;5091103;28;20469;-68
2020/12/01 04:27:34;;;;;;;6.57;6.03;;;8.70;99.30;;;;;;5091646;28;20438;-68
2020/12/01 04:30:00;;;;;;;5.43;5.03;;;8.70;99.40;;;;;;5072726;28;20420;-68
2020/12/01 04:32:26;;;;;;;5.10;4.70;;;8.70;99.50;;;;;;5074207;28;20411;-68
2020/12/01 04:34:51;;;;;;;6.40;5.90;;;8.60;99.50;;;;;;5091130;28;20920;-69
2020/12/01 04:37:17;;;;;;;5.90;5.50;;;8.60;99.50;;;;;;5092028;28;20168;-69
2020/12/01 04:39:43;;;;;;;4.93;4.53;;;8.60;99.60;;;;;;5091506;28;20264;-69
2020/12/01 04:42:16;;;;;;;6.40;5.80;;;8.60;99.70;;;;;;5089278;28;20493;-68
2020/12/01 04:44:50;;;;;;;7.90;7.40;;;8.60;99.80;;;;;;5091982;28;20187;-68
2020/12/01 04:47:26;;;;;;;6.30;5.70;;;8.60;99.90;;;;;;5092313;28;20405;-68
2020/12/01 04:50:09;;;;;;;7.00;6.40;;;8.60;99.90;;;;;;5091809;28;20395;-69
2020/12/01 04:53:02;;;;;;;5.30;4.90;;;8.60;99.90;;;;;;5092383;28;20460;-68
2020/12/01 04:56:02;;;;;;;8.30;7.70;;;8.60;99.90;;;;;;5092008;28;20421;-68
2020/12/01 04:59:06;;;;;;;5.50;5.00;;;8.60;99.90;;;;;;5092107;28;20514;-68
2020/12/01 05:01:46;;;;;;;4.80;4.40;;;8.60;99.90;;;;;;4990488;28;20513;-69
2020/12/01 05:04:29;;;;;;;5.83;5.30;;;8.50;99.90;;;;;;5081378;28;20466;-68
2020/12/01 05:07:34;;;;;;;6.27;5.67;;;8.50;99.90;;;;;;5091750;28;20402;-69
2020/12/01 05:10:09;;;;;;;5.70;5.20;;;8.50;99.90;;;;;;5071073;28;20437;-68
2020/12/01 05:12:38;;;;;;;6.93;6.37;;;8.40;99.90;;;;;;5087456;28;20443;-68
2020/12/01 05:15:18;;;;;;;6.40;5.53;;;8.50;99.90;;;;;;5091219;28;20421;-68
2020/12/01 05:17:52;;;;;;;6.40;5.80;;;8.40;99.90;;;;;;5092004;28;20554;-68
2020/12/01 05:20:18;;;;;;;7.37;6.77;;;8.40;99.90;;;;;;5092084;28;20421;-69
2020/12/01 05:22:50;;;;;;;6.70;6.20;;;8.40;99.90;;;;;;5091754;28;20410;-68
2020/12/01 05:25:28;;;;;;;6.83;6.23;;;8.40;99.90;;;;;;5073692;28;20643;-69
2020/12/01 05:28:03;;;;;;;9.37;8.67;;;8.40;99.90;;;;;;5091523;28;20942;-69
2020/12/01 05:30:29;;;;;;;6.13;5.57;;;8.40;99.90;;;;;;5091236;28;20950;-69
2020/12/01 05:33:04;;;;;;;6.53;5.87;;;8.50;99.90;;;;;;5094112;28;20426;-68
2020/12/01 05:35:35;;;;;;;6.63;6.00;;;8.50;99.90;;;;;;5095832;28;20402;-68
2020/12/01 05:38:18;;;;;;;6.70;6.00;;;8.50;99.90;;;;;;5095076;28;20927;-70
2020/12/01 05:41:00;;;;;;;7.63;6.93;;;8.50;99.90;;;;;;5090651;28;20974;-69
2020/12/01 05:43:28;;;;;;;6.53;6.03;;;8.50;99.90;;;;;;5095273;28;20402;-68
2020/12/01 05:46:28;;;;;;;8.00;6.90;;;8.50;99.90;;;;;;5094490;28;20803;-69
2020/12/01 05:49:35;;;;;;;8.50;7.60;;;8.50;99.90;;;;;;5081277;28;20574;-69
2020/12/01 05:52:15;;;;;;;6.83;6.23;;;8.50;99.90;;;;;;5095071;28;20477;-69
2020/12/01 05:55:02;;;;;;;8.47;7.27;;;8.50;99.90;;;;;;5077115;28;20785;-68
2020/12/01 05:57:28;;;;;;;7.43;6.80;;;8.50;99.90;;;;;;5094989;28;20410;-71
2020/12/01 06:00:15;;;;;;;8.13;7.33;;;8.50;99.90;;;;;;5094572;28;20758;-68
2020/12/01 06:02:40;;;;;;;9.47;8.67;;;8.50;99.90;;;;;;5095167;28;20800;-70
2020/12/01 06:05:09;;;;;;;8.13;7.00;;;8.50;99.90;;;;;;5094510;28;20438;-71
2020/12/01 06:07:36;;;;;;;7.93;7.03;;;8.50;99.90;;;;;;5095078;28;20175;-70
2020/12/01 06:10:23;;;;;;;8.63;7.40;;;8.40;99.90;;;;;;5094477;28;20407;-69
2020/12/01 06:12:49;;;;;;;8.17;7.40;;;8.50;99.90;;;;;;5059193;28;20428;-69
2020/12/01 06:15:19;;;;;;;7.60;6.83;;;8.50;99.90;;;;;;5088671;28;20498;-68
2020/12/01 06:18:19;;;;;;;7.90;7.10;;;8.50;99.90;;;;;;5095076;28;20688;-68
2020/12/01 06:21:08;;;;;;;8.97;7.87;;;8.50;99.90;;;;;;5094977;28;20493;-68
2020/12/01 06:23:57;;;;;;;9.87;8.10;;;8.50;99.90;;;;;;5094378;28;20497;-68
2020/12/01 06:26:44;;;;;;;10.43;8.83;;;8.50;99.90;;;;;;5094079;28;20474;-68
2020/12/01 06:29:43;;;;;;;9.80;8.83;;;8.40;99.90;;;;;;5079278;28;20413;-68
2020/12/01 06:32:40;;;;;;;10.30;9.30;;;8.40;99.90;;;;;;5090862;28;20421;-68
2020/12/01 06:35:43;;;;;;;11.63;8.70;;;8.40;99.90;;;;;;5094051;28;20409;-69
2020/12/01 06:38:23;;;;;;;10.50;8.90;;;8.40;99.90;;;;;;5093880;28;20409;-68
2020/12/01 06:41:07;;;;;;;10.67;9.57;;;8.40;99.90;;;;;;5094469;28;20790;-68
2020/12/01 06:43:40;;;;;;;9.70;8.70;;;8.40;99.90;;;;;;5094149;28;20721;-68
2020/12/01 06:46:24;;;;;;;9.70;8.70;;;8.40;99.90;;;;;;5081463;28;20490;-68
2020/12/01 06:48:51;;;;;;;8.93;8.13;;;8.50;99.90;;;;;;5093840;28;20399;-68
2020/12/01 06:51:18;;;;;;;12.00;9.57;;;8.50;99.90;;;;;;5094000;28;20755;-68
2020/12/01 06:53:44;;;;;;;10.90;9.67;;;8.50;99.90;;;;;;5093380;28;20441;-68
2020/12/01 06:56:17;;;;;;;10.73;9.67;;;8.50;99.90;;;;;;5093163;28;20465;-68
2020/12/01 06:58:45;;;;;;;11.27;9.77;;;8.50;99.90;;;;;;5093622;28;20167;-68
2020/12/01 07:01:30;;;;;;;10.60;9.50;;;8.60;99.90;;;;;;5080310;28;20528;-68
2020/12/01 07:04:14;;;;;;;10.37;9.30;;;8.60;99.90;;;;;;5093949;28;20415;-68
2020/12/01 07:06:53;;;;;;;11.83;9.50;;;8.50;99.90;;;;;;5094068;28;20743;-68
2020/12/01 07:09:38;;;;;;;11.27;8.70;;;8.60;99.90;;;;;;5094061;28;20823;-68
2020/12/01 07:12:29;;;;;;;10.60;9.50;;;8.60;99.90;;;;;;5092919;28;20473;-68
2020/12/01 07:15:07;;;;;;;11.50;9.33;;;8.60;99.90;;;;;;5092877;28;20426;-69
2020/12/01 07:17:35;;;;;;;12.60;10.10;;;8.60;99.90;;;;;;5093530;28;20441;-68
2020/12/01 07:20:13;;;;;;;13.30;9.93;;;8.60;99.90;;;;;;5093036;28;20422;-68
2020/12/01 07:22:39;;;;;;;14.47;10.73;;;8.60;99.90;;;;;;5093636;28;20403;-68
2020/12/01 07:25:10;;;;;;;14.13;11.10;;;8.70;99.90;;;;;;5092642;28;21056;-68
2020/12/01 07:28:00;;;;;;;12.83;11.30;;;8.70;99.90;;;;;;5093347;28;20172;-68
2020/12/01 07:30:28;;;;;;;11.50;9.93;;;8.70;99.90;;;;;;5092302;28;20782;-69
2020/12/01 07:32:57;;;;;;;13.83;10.03;;;8.70;99.90;;;;;;5085841;28;20556;-69
2020/12/01 07:35:49;;;;;;;13.17;11.80;;;8.70;99.90;;;;;;5092926;28;20422;-68
2020/12/01 07:38:32;;;;;;;12.23;10.20;;;8.80;99.90;;;;;;5092754;28;20436;-68
2020/12/01 07:41:23;;;;;;;15.50;12.03;;;8.80;99.90;;;;;;5092507;28;20451;-69
2020/12/01 07:44:03;;;;;;;14.90;12.20;;;8.80;99.90;;;;;;5093198;28;20399;-68
2020/12/01 07:46:30;;;;;;;13.73;11.40;;;8.80;99.90;;;;;;5093165;28;20917;-68
2020/12/01 07:49:03;;;;;;;14.90;11.93;;;8.80;99.90;;;;;;5092372;28;20441;-69
2020/12/01 07:51:30;;;;;;;13.50;12.10;;;8.80;99.90;;;;;;5092962;28;20418;-68
2020/12/01 07:53:57;;;;;;;13.00;10.90;;;8.80;99.90;;;;;;5092047;28;20455;-69
2020/12/01 07:56:27;;;;;;;14.70;11.53;;;8.80;99.90;;;;;;5092871;28;20422;-68
2020/12/01 07:59:12;;;;;;;17.93;11.87;;;8.80;99.90;;;;;;5092881;28;20409;-69
2020/12/01 08:01:40;;;;;;;22.03;12.33;;;8.80;99.90;;;;;;5067933;28;20773;-69
2020/12/01 08:04:17;;;;;;;14.87;11.13;;;8.90;99.90;;;;;;5091181;28;20411;-68
2020/12/01 08:06:44;;;;;;;18.13;11.70;;;8.80;99.90;;;;;;5092377;28;20459;-68
2020/12/01 08:09:19;;;;;;;16.47;13.37;;;8.80;99.90;;;;;;5092262;28;20418;-68
2020/12/01 08:11:47;;;;;;;15.67;11.93;;;8.80;99.90;;;;;;5092779;28;20398;-68
2020/12/01 08:14:14;;;;;;;16.60;13.00;;;8.90;99.90;;;;;;5092194;28;20413;-68
2020/12/01 08:16:41;;;;;;;18.20;11.97;;;8.90;99.90;;;;;;5092502;28;20900;-68
2020/12/01 08:19:11;;;;;;;16.87;11.93;;;8.80;99.90;;;;;;5091848;28;20406;-68
2020/12/01 08:21:43;;;;;;;16.20;12.80;;;8.80;99.90;;;;;;5092918;28;20478;-68
2020/12/01 08:24:18;;;;;;;21.33;12.57;;;8.80;99.90;;;;;;5092050;28;20402;-69
2020/12/01 08:26:46;;;;;;;20.50;14.07;;;8.80;99.90;;;;;;5092633;28;20465;-68
2020/12/01 08:29:30;;;;;;;20.20;12.93;;;8.90;99.90;;;;;;5091749;28;20440;-68
2020/12/01 08:32:12;;;;;;;19.90;12.70;;;8.90;99.90;;;;;;5088221;28;20423;-70
2020/12/01 08:35:04;;;;;;;18.33;13.07;;;8.90;99.90;;;;;;5091172;28;20768;-68
2020/12/01 08:38:07;;;;;;;21.10;13.13;;;9.00;99.90;;;;;;5092117;28;20418;-68
2020/12/01 08:41:24;;;;;;;19.20;13.40;;;9.00;99.90;;;;;;5092437;28;20417;-69
2020/12/01 08:43:56;;;;;;;20.00;13.43;;;9.00;99.90;;;;;;5049431;28;20414;-68
2020/12/01 08:46:27;;;;;;;21.43;13.87;;;9.00;99.90;;;;;;5092328;28;20414;-69
2020/12/01 08:49:06;;;;;;;20.80;13.70;;;9.10;99.90;;;;;;5092048;28;20399;-68
2020/12/01 08:51:49;;;;;;;22.63;14.77;;;9.10;99.90;;;;;;5092239;28;20894;-69
2020/12/01 08:54:25;;;;;;;23.00;13.77;;;9.10;99.90;;;;;;5091418;28;20798;-68
2020/12/01 08:57:13;;;;;;;22.83;13.87;;;9.10;99.90;;;;;;5092220;28;20406;-68
2020/12/01 08:59:54;;;;;;;21.73;14.27;;;9.10;99.90;;;;;;5092331;28;20401;-68
2020/12/01 09:02:21;;;;;;;20.83;14.00;;;9.10;99.90;;;;;;5089192;28;20498;-68
2020/12/01 09:04:57;;;;;;;20.03;13.47;;;9.00;99.90;;;;;;5086815;28;20450;-68
2020/12/01 09:07:38;;;;;;;22.57;14.50;;;9.00;99.90;;;;;;5094052;28;20405;-68
2020/12/01 09:10:30;;;;;;;19.80;12.93;;;9.00;99.90;;;;;;5095636;28;20398;-69
2020/12/01 09:23:32;;;;;;;27.40;16.00;;;9.20;99.90;;;;;;5095826;28;20422;-68
2020/12/01 09:25:59;;;;;;;23.63;14.57;;;9.20;99.90;;;;;;5095802;28;20565;-68
2020/12/01 09:28:29;;;;;;;24.93;14.10;;;9.20;99.90;;;;;;5095358;28;20776;-68
2020/12/01 09:31:03;;;;;;;27.63;16.00;;;9.20;99.90;;;;;;5094919;28;20452;-68
2020/12/01 09:33:29;;;;;;;28.13;14.87;;;9.30;99.90;;;;;;5087731;28;20414;-69
2020/12/01 09:35:56;;;;;;;25.03;13.90;;;9.30;99.90;;;;;;5095252;28;20429;-68
2020/12/01 09:38:22;;;;;;;27.80;15.83;;;9.30;99.90;;;;;;5094724;28;20463;-68
2020/12/01 09:40:50;;;;;;;27.40;16.57;;;9.30;99.90;;;;;;5095593;28;20402;-68
2020/12/01 09:43:37;;;;;;;29.00;15.43;;;9.30;99.90;;;;;;5094506;28;20406;-68
2020/12/01 09:46:08;;;;;;;26.17;16.00;;;9.40;99.90;;;;;;5094825;28;20442;-68
2020/12/01 09:48:36;;;;;;;27.03;15.63;;;9.40;99.90;;;;;;5095691;28;20494;-68
2020/12/01 09:51:02;;;;;;;28.27;16.90;;;9.40;99.90;;;;;;5094843;28;20405;-68
2020/12/01 10:09:45;;;;;;;26.23;15.03;;;9.60;99.90;;;;;;5094758;28;20403;-68
2020/12/01 10:35:46;;;;;;;18.03;11.20;;;9.80;99.90;;;;;;5094495;28;20460;-68
2020/12/01 10:38:13;;;;;;;18.90;13.00;;;9.90;99.90;;;;;;5077618;28;20426;-69
2020/12/01 10:40:39;;;;;;;18.23;10.63;;;9.90;99.90;;;;;;5091932;28;20502;-68
2020/12/01 10:43:06;;;;;;;16.23;12.27;;;9.90;99.90;;;;;;5092553;28;20494;-69
2020/12/01 10:45:33;;;;;;;15.87;10.77;;;9.90;99.90;;;;;;5092612;28;20542;-69
2020/12/01 10:47:58;;;;;;;14.43;11.50;;;9.90;99.90;;;;;;5092949;28;20503;-68
2020/12/01 10:50:27;;;;;;;16.33;11.50;;;9.90;99.90;;;;;;5093437;28;20498;-69
2020/12/01 10:52:54;;;;;;;15.77;10.43;;;9.90;99.90;;;;;;5093200;28;20438;-68
2020/12/01 10:55:25;;;;;;;15.57;11.50;;;9.90;99.90;;;;;;5092217;28;20414;-69
2020/12/01 10:57:55;;;;;;;18.80;12.27;;;9.90;99.90;;;;;;5093024;28;20494;-69
2020/12/01 11:00:23;;;;;;;16.57;11.67;;;9.90;99.90;;;;;;5093422;28;20898;-68
2020/12/01 11:02:49;;;;;;;15.57;12.73;;;10.00;99.90;;;;;;5093987;28;20446;-68
2020/12/01 11:05:31;;;;;;;14.13;10.53;;;10.00;99.90;;;;;;5093250;28;20853;-68
2020/12/01 11:07:58;;;;;;;15.83;10.83;;;10.00;99.90;;;;;;5093984;28;20184;-68
2020/12/01 11:10:25;;;;;;;15.63;12.03;;;10.00;99.90;;;;;;5084359;28;20418;-68
2020/12/01 11:12:51;;;;;;;14.40;10.73;;;10.10;99.90;;;;;;5092862;28;20457;-68
2020/12/01 11:15:17;;;;;;;18.90;12.27;;;10.10;99.90;;;;;;5092753;28;20416;-68
2020/12/01 11:17:43;;;;;;;13.80;11.10;;;10.10;99.90;;;;;;5091966;28;20902;-68
2020/12/01 11:20:15;;;;;;;12.60;11.10;;;10.10;99.90;;;;;;5091749;28;20428;-68
2020/12/01 11:22:43;;;;;;;13.90;11.30;;;10.10;99.90;;;;;;5074211;28;20588;-68
2020/12/01 11:25:09;;;;;;;16.47;11.27;;;10.10;99.90;;;;;;5091166;28;20478;-68
2020/12/01 11:27:35;;;;;;;15.30;11.63;;;10.10;99.90;;;;;;5091614;28;20441;-68
2020/12/01 11:30:01;;;;;;;16.47;12.13;;;10.10;99.90;;;;;;5072897;28;20178;-68
2020/12/01 11:32:26;;;;;;;15.80;11.63;;;10.10;99.90;;;;;;5091559;28;20170;-68
2020/12/01 11:34:52;;;;;;;13.93;10.90;;;10.10;99.90;;;;;;5092023;28;20176;-68
2020/12/01 11:37:18;;;;;;;15.63;11.03;;;10.10;99.90;;;;;;5088413;28;20181;-68
2020/12/01 11:39:44;;;;;;;14.67;10.93;;;10.10;99.90;;;;;;5090367;28;20192;-70
2020/12/01 11:42:10;;;;;;;14.07;11.30;;;10.10;99.90;;;;;;5089850;28;20935;-68
2020/12/01 11:44:36;;;;;;;15.17;11.13;;;10.10;99.90;;;;;;5092691;28;20211;-68
2020/12/01 11:47:02;;;;;;;15.30;11.53;;;10.10;99.90;;;;;;5074845;28;20176;-69
2020/12/01 11:49:28;;;;;;;12.10;10.03;;;10.10;99.90;;;;;;5093345;28;20199;-69
2020/12/01 11:51:53;;;;;;;12.53;10.73;;;10.10;99.90;;;;;;5092604;28;20438;-69
2020/12/01 11:54:20;;;;;;;11.97;10.40;;;10.20;99.90;;;;;;5092837;28;20271;-69
2020/12/01 11:56:46;;;;;;;13.30;10.90;;;10.10;99.90;;;;;;5092512;28;20188;-69
2020/12/01 11:59:12;;;;;;;14.60;11.27;;;10.20;99.90;;;;;;5074329;28;20543;-69
2020/12/01 12:01:38;;;;;;;15.30;10.50;;;10.20;99.90;;;;;;5092968;28;20778;-69
2020/12/01 12:04:05;;;;;;;14.10;11.57;;;10.20;99.90;;;;;;5091563;28;20452;-70
2020/12/01 12:06:31;;;;;;;14.03;11.67;;;10.30;99.90;;;;;;5091474;28;20553;-69
2020/12/01 12:08:57;;;;;;;16.30;11.67;;;10.30;99.90;;;;;;5091923;28;20485;-69
2020/12/01 12:11:23;;;;;;;14.13;12.17;;;10.30;99.90;;;;;;5084511;28;20481;-69
2020/12/01 12:13:49;;;;;;;13.03;10.80;;;10.30;99.90;;;;;;5092446;28;20423;-69
2020/12/01 12:16:17;;;;;;;14.50;11.77;;;10.30;99.90;;;;;;5091485;28;20170;-69
2020/12/01 12:18:43;;;;;;;17.27;13.40;;;10.40;99.90;;;;;;5091144;28;20172;-69
2020/12/01 12:21:09;;;;;;;16.70;13.40;;;10.40;99.90;;;;;;5090598;28;20774;-69
2020/12/01 12:23:35;;;;;;;14.10;11.87;;;10.40;99.90;;;;;;5092269;28;20413;-69
2020/12/01 12:26:01;;;;;;;15.67;12.50;;;10.40;99.90;;;;;;5092639;28;20571;-69
2020/12/01 12:28:26;;;;;;;12.93;11.10;;;10.40;99.90;;;;;;5091897;28;20190;-68
2020/12/01 12:30:53;;;;;;;13.40;11.17;;;10.40;99.90;;;;;;5092256;28;20184;-68
2020/12/01 12:33:20;;;;;;;13.53;10.50;;;10.40;99.90;;;;;;5091723;28;20631;-68
2020/12/01 12:35:51;;;;;;;12.47;10.60;;;10.40;99.90;;;;;;5092594;28;20893;-68
2020/12/01 12:38:18;;;;;;;11.50;10.30;;;10.40;99.90;;;;;;5092122;28;20408;-68
2020/12/01 12:40:43;;;;;;;14.47;11.63;;;10.40;99.90;;;;;;5093316;28;20495;-68
2020/12/01 12:43:09;;;;;;;17.40;12.27;;;10.40;99.90;;;;;;5092969;28;20521;-68
2020/12/01 12:45:35;;;;;;;13.07;10.53;;;10.40;99.90;;;;;;5096240;28;20203;-69
2020/12/01 12:48:01;;;;;;;15.40;11.73;;;10.40;99.90;;;;;;5096738;28;20185;-68
2020/12/01 12:50:27;;;;;;;15.00;12.07;;;10.50;99.90;;;;;;5095998;28;20201;-68
2020/12/01 12:52:52;;;;;;;11.00;9.50;;;10.50;99.90;;;;;;5096265;28;20189;-69
2020/12/01 12:55:18;;;;;;;15.37;11.30;;;10.50;99.90;;;;;;5091479;28;20426;-68
2020/12/01 12:57:44;;;;;;;12.97;11.57;;;10.60;99.90;;;;;;5095525;28;20227;-68
2020/12/01 13:00:11;;;;;;;11.63;10.40;;;10.60;99.90;;;;;;5095754;28;20411;-68
2020/12/01 13:02:37;;;;;;;11.70;9.23;;;10.60;99.90;;;;;;5096346;28;20197;-68
2020/12/01 13:05:03;;;;;;;11.23;10.13;;;10.60;99.90;;;;;;5095624;28;20490;-68
2020/12/01 13:07:29;;;;;;;10.10;9.10;;;10.60;99.90;;;;;;5076593;28;20996;-68
2020/12/01 13:09:54;;;;;;;12.07;9.40;;;10.60;99.90;;;;;;5095435;28;20173;-68
2020/12/01 13:12:20;;;;;;;12.73;9.40;;;10.60;99.90;;;;;;5086369;28;20178;-68
2020/12/01 13:14:47;;;;;;;10.03;9.13;;;10.60;99.90;;;;;;5095607;28;20235;-68
2020/12/01 13:17:13;;;;;;;11.60;9.90;;;10.60;99.90;;;;;;5095619;28;20200;-68
2020/12/01 13:19:39;;;;;;;11.27;10.17;;;10.50;99.90;;;;;;5095984;28;20430;-68
2020/12/01 13:22:04;;;;;;;11.03;9.97;;;10.40;99.90;;;;;;5095995;28;20399;-68
2020/12/01 13:24:30;;;;;;;13.30;10.80;;;10.30;99.90;;;;;;5095056;28;20197;-68
2020/12/01 13:26:56;;;;;;;13.23;11.30;;;10.30;99.90;;;;;;5095593;28;20446;-68
2020/12/01 13:29:22;;;;;;;11.03;10.00;;;10.30;99.90;;;;;;5095253;28;20615;-69
2020/12/01 13:31:48;;;;;;;12.57;11.27;;;10.40;99.90;;;;;;5095791;28;20253;-68
2020/12/01 13:34:15;;;;;;;12.90;11.60;;;10.40;99.90;;;;;;5095332;28;20166;-69
2020/12/01 13:36:41;;;;;;;11.60;10.30;;;10.50;99.90;;;;;;5095647;28;20404;-68
2020/12/01 13:39:07;;;;;;;11.80;10.60;;;10.50;99.90;;;;;;5095247;28;20406;-69
2020/12/01 13:41:33;;;;;;;14.10;11.63;;;10.40;99.90;;;;;;5094704;28;20174;-68
2020/12/01 13:43:59;;;;;;;13.37;11.97;;;10.40;99.90;;;;;;5090311;28;20925;-68
2020/12/01 13:46:24;;;;;;;11.80;9.57;;;10.30;99.90;;;;;;5093897;28;20208;-68
2020/12/01 13:48:50;;;;;;;10.07;8.83;;;10.40;99.90;;;;;;5094934;28;20183;-68
2020/12/01 13:51:17;;;;;;;12.60;9.00;;;10.40;99.90;;;;;;5094486;28;20234;-68
2020/12/01 13:53:43;;;;;;;9.07;7.90;;;10.40;99.90;;;;;;5093070;28;20531;-68